sensor_id;sensor_type;location;lat;lon;timestamp;P1;durP1;ratioP1;P2;durP2;ratioP2
26106;SDS011;13866;50.748;12.630;2022-08-19T00:01:42;38.97;;;34.77;;
26106;SDS011;13866;50.748;12.630;2022-08-19T00:04:11;41.20;;;36.60;;
26106;SDS011;13866;50.748;12.630;2022-08-19T00:06:39;40.63;;;36.60;;
26106;SDS011;13866;50.748;12.630;2022-08-19T00:09:08;46.40;;;38.00;;
26106;SDS011;13866;50.748;12.630;2022-08-19T00:11:35;49.37;;;38.07;;
26106;SDS011;13866;50.748;12.630;2022-08-19T00:14:02;44.10;;;39.40;;
26106;SDS011;13866;50.748;12.630;2022-08-19T00:16:29;46.87;;;41.30;;
26106;SDS011;13866;50.748;12.630;2022-08-19T00:18:55;53.60;;;42.53;;
26106;SDS011;13866;50.748;12.630;2022-08-19T00:21:20;49.77;;;42.50;;
26106;SDS011;13866;50.748;12.630;2022-08-19T00:23:47;51.50;;;44.10;;
26106;SDS011;13866;50.748;12.630;2022-08-19T00:26:12;49.73;;;43.20;;
26106;SDS011;13866;50.748;12.630;2022-08-19T00:28:38;51.70;;;44.67;;
26106;SDS011;13866;50.748;12.630;2022-08-19T00:31:04;49.00;;;42.87;;
26106;SDS011;13866;50.748;12.630;2022-08-19T00:33:31;47.93;;;42.57;;
26106;SDS011;13866;50.748;12.630;2022-08-19T00:35:58;51.20;;;42.20;;
26106;SDS011;13866;50.748;12.630;2022-08-19T00:38:24;45.37;;;40.23;;
26106;SDS011;13866;50.748;12.630;2022-08-19T00:40:50;54.93;;;44.97;;
26106;SDS011;13866;50.748;12.630;2022-08-19T00:43:19;48.50;;;42.07;;
26106;SDS011;13866;50.748;12.630;2022-08-19T00:45:47;54.27;;;44.87;;
26106;SDS011;13866;50.748;12.630;2022-08-19T00:48:13;59.97;;;45.47;;
26106;SDS011;13866;50.748;12.630;2022-08-19T00:50:39;52.27;;;45.30;;
26106;SDS011;13866;50.748;12.630;2022-08-19T00:53:07;58.43;;;46.50;;
26106;SDS011;13866;50.748;12.630;2022-08-19T00:55:34;51.10;;;43.07;;
26106;SDS011;13866;50.748;12.630;2022-08-19T00:58:02;58.10;;;45.33;;
26106;SDS011;13866;50.748;12.630;2022-08-19T01:00:31;57.70;;;46.50;;
26106;SDS011;13866;50.748;12.630;2022-08-19T01:02:56;59.73;;;44.73;;
26106;SDS011;13866;50.748;12.630;2022-08-19T01:05:24;57.30;;;45.73;;
26106;SDS011;13866;50.748;12.630;2022-08-19T01:07:55;54.70;;;47.00;;
26106;SDS011;13866;50.748;12.630;2022-08-19T01:10:24;57.67;;;46.80;;
26106;SDS011;13866;50.748;12.630;2022-08-19T01:12:51;52.20;;;43.97;;
26106;SDS011;13866;50.748;12.630;2022-08-19T01:15:19;56.30;;;47.57;;
26106;SDS011;13866;50.748;12.630;2022-08-19T01:17:49;60.20;;;48.57;;
26106;SDS011;13866;50.748;12.630;2022-08-19T01:20:17;58.80;;;49.07;;
26106;SDS011;13866;50.748;12.630;2022-08-19T01:23:03;60.70;;;48.83;;
26106;SDS011;13866;50.748;12.630;2022-08-19T01:25:42;67.93;;;48.33;;
26106;SDS011;13866;50.748;12.630;2022-08-19T01:28:15;69.30;;;50.90;;
26106;SDS011;13866;50.748;12.630;2022-08-19T01:30:46;63.73;;;50.50;;
26106;SDS011;13866;50.748;12.630;2022-08-19T01:33:12;62.20;;;52.20;;
26106;SDS011;13866;50.748;12.630;2022-08-19T01:35:38;59.53;;;49.13;;
26106;SDS011;13866;50.748;12.630;2022-08-19T01:38:06;58.83;;;48.87;;
26106;SDS011;13866;50.748;12.630;2022-08-19T01:40:35;64.70;;;49.47;;
26106;SDS011;13866;50.748;12.630;2022-08-19T01:43:03;74.37;;;54.40;;
26106;SDS011;13866;50.748;12.630;2022-08-19T01:45:29;72.13;;;56.23;;
26106;SDS011;13866;50.748;12.630;2022-08-19T01:47:57;79.67;;;57.70;;
26106;SDS011;13866;50.748;12.630;2022-08-19T01:50:24;76.27;;;56.40;;
26106;SDS011;13866;50.748;12.630;2022-08-19T01:52:50;77.50;;;58.37;;
26106;SDS011;13866;50.748;12.630;2022-08-19T01:55:17;78.13;;;59.23;;
26106;SDS011;13866;50.748;12.630;2022-08-19T01:57:44;87.50;;;58.80;;
26106;SDS011;13866;50.748;12.630;2022-08-19T02:00:16;73.80;;;57.03;;
26106;SDS011;13866;50.748;12.630;2022-08-19T02:02:44;80.03;;;59.10;;
26106;SDS011;13866;50.748;12.630;2022-08-19T02:05:10;79.43;;;59.93;;
26106;SDS011;13866;50.748;12.630;2022-08-19T02:07:37;88.13;;;62.27;;
26106;SDS011;13866;50.748;12.630;2022-08-19T02:10:08;81.90;;;61.53;;
26106;SDS011;13866;50.748;12.630;2022-08-19T02:12:38;74.37;;;57.30;;
26106;SDS011;13866;50.748;12.630;2022-08-19T02:15:04;83.20;;;61.20;;
26106;SDS011;13866;50.748;12.630;2022-08-19T02:17:31;87.50;;;60.90;;
26106;SDS011;13866;50.748;12.630;2022-08-19T02:19:57;74.97;;;54.77;;
26106;SDS011;13866;50.748;12.630;2022-08-19T02:22:23;78.70;;;58.60;;
26106;SDS011;13866;50.748;12.630;2022-08-19T02:24:51;85.40;;;62.83;;
26106;SDS011;13866;50.748;12.630;2022-08-19T02:27:17;88.23;;;60.67;;
26106;SDS011;13866;50.748;12.630;2022-08-19T02:29:43;86.40;;;61.67;;
26106;SDS011;13866;50.748;12.630;2022-08-19T02:32:10;85.77;;;61.43;;
26106;SDS011;13866;50.748;12.630;2022-08-19T02:34:35;103.00;;;65.27;;
26106;SDS011;13866;50.748;12.630;2022-08-19T02:37:01;92.37;;;64.73;;
26106;SDS011;13866;50.748;12.630;2022-08-19T02:39:27;88.93;;;61.20;;
26106;SDS011;13866;50.748;12.630;2022-08-19T02:41:52;95.40;;;63.70;;
26106;SDS011;13866;50.748;12.630;2022-08-19T02:44:17;87.80;;;62.17;;
26106;SDS011;13866;50.748;12.630;2022-08-19T02:46:44;89.90;;;62.70;;
26106;SDS011;13866;50.748;12.630;2022-08-19T02:49:10;87.30;;;60.93;;
26106;SDS011;13866;50.748;12.630;2022-08-19T02:51:37;84.40;;;59.10;;
26106;SDS011;13866;50.748;12.630;2022-08-19T02:54:05;89.87;;;61.43;;
26106;SDS011;13866;50.748;12.630;2022-08-19T02:56:34;90.20;;;61.33;;
26106;SDS011;13866;50.748;12.630;2022-08-19T02:59:04;90.10;;;60.40;;
26106;SDS011;13866;50.748;12.630;2022-08-19T03:01:33;83.97;;;57.80;;
26106;SDS011;13866;50.748;12.630;2022-08-19T03:03:59;85.43;;;59.10;;
26106;SDS011;13866;50.748;12.630;2022-08-19T03:06:27;79.33;;;56.60;;
26106;SDS011;13866;50.748;12.630;2022-08-19T03:08:53;86.50;;;57.37;;
26106;SDS011;13866;50.748;12.630;2022-08-19T03:11:26;85.50;;;60.40;;
26106;SDS011;13866;50.748;12.630;2022-08-19T03:13:54;80.23;;;56.13;;
26106;SDS011;13866;50.748;12.630;2022-08-19T03:16:21;72.27;;;55.23;;
26106;SDS011;13866;50.748;12.630;2022-08-19T03:18:49;76.50;;;56.40;;
26106;SDS011;13866;50.748;12.630;2022-08-19T03:21:16;75.90;;;54.70;;
26106;SDS011;13866;50.748;12.630;2022-08-19T03:23:43;82.77;;;57.23;;
26106;SDS011;13866;50.748;12.630;2022-08-19T03:26:09;78.07;;;56.33;;
26106;SDS011;13866;50.748;12.630;2022-08-19T03:28:34;83.03;;;59.70;;
26106;SDS011;13866;50.748;12.630;2022-08-19T03:31:04;79.00;;;54.63;;
26106;SDS011;13866;50.748;12.630;2022-08-19T03:33:33;75.90;;;54.70;;
26106;SDS011;13866;50.748;12.630;2022-08-19T03:38:39;83.20;;;54.53;;
26106;SDS011;13866;50.748;12.630;2022-08-19T03:41:17;82.40;;;56.67;;
26106;SDS011;13866;50.748;12.630;2022-08-19T03:43:45;87.47;;;57.40;;
26106;SDS011;13866;50.748;12.630;2022-08-19T03:46:16;91.73;;;58.20;;
26106;SDS011;13866;50.748;12.630;2022-08-19T03:48:45;87.40;;;55.90;;
26106;SDS011;13866;50.748;12.630;2022-08-19T03:51:22;89.57;;;56.73;;
26106;SDS011;13866;50.748;12.630;2022-08-19T03:53:53;93.70;;;60.17;;
26106;SDS011;13866;50.748;12.630;2022-08-19T03:56:20;93.57;;;59.00;;
26106;SDS011;13866;50.748;12.630;2022-08-19T03:58:46;92.73;;;56.60;;
26106;SDS011;13866;50.748;12.630;2022-08-19T04:01:14;94.00;;;60.93;;
26106;SDS011;13866;50.748;12.630;2022-08-19T04:03:42;90.93;;;55.73;;
26106;SDS011;13866;50.748;12.630;2022-08-19T04:06:12;101.37;;;63.37;;
26106;SDS011;13866;50.748;12.630;2022-08-19T04:08:40;102.60;;;63.60;;
26106;SDS011;13866;50.748;12.630;2022-08-19T04:11:08;108.43;;;64.57;;
26106;SDS011;13866;50.748;12.630;2022-08-19T04:13:35;98.87;;;63.70;;
26106;SDS011;13866;50.748;12.630;2022-08-19T04:16:01;98.03;;;61.77;;
26106;SDS011;13866;50.748;12.630;2022-08-19T04:18:28;100.23;;;61.00;;
26106;SDS011;13866;50.748;12.630;2022-08-19T04:20:55;103.20;;;59.63;;
26106;SDS011;13866;50.748;12.630;2022-08-19T04:23:21;97.03;;;59.33;;
26106;SDS011;13866;50.748;12.630;2022-08-19T04:25:47;104.60;;;57.93;;
26106;SDS011;13866;50.748;12.630;2022-08-19T04:28:13;84.37;;;52.47;;
26106;SDS011;13866;50.748;12.630;2022-08-19T04:30:43;76.80;;;52.93;;
26106;SDS011;13866;50.748;12.630;2022-08-19T04:33:11;74.53;;;50.70;;
26106;SDS011;13866;50.748;12.630;2022-08-19T04:35:39;73.83;;;48.03;;
26106;SDS011;13866;50.748;12.630;2022-08-19T04:38:05;73.73;;;48.53;;
26106;SDS011;13866;50.748;12.630;2022-08-19T04:40:31;72.00;;;48.13;;
26106;SDS011;13866;50.748;12.630;2022-08-19T04:43:15;72.10;;;48.10;;
26106;SDS011;13866;50.748;12.630;2022-08-19T04:45:44;71.40;;;49.33;;
26106;SDS011;13866;50.748;12.630;2022-08-19T04:48:11;72.00;;;47.30;;
26106;SDS011;13866;50.748;12.630;2022-08-19T04:50:41;73.50;;;48.20;;
26106;SDS011;13866;50.748;12.630;2022-08-19T04:53:07;85.60;;;53.97;;
26106;SDS011;13866;50.748;12.630;2022-08-19T04:55:34;87.23;;;55.23;;
26106;SDS011;13866;50.748;12.630;2022-08-19T04:58:00;92.67;;;56.73;;
26106;SDS011;13866;50.748;12.630;2022-08-19T05:00:27;96.73;;;57.87;;
26106;SDS011;13866;50.748;12.630;2022-08-19T05:02:52;93.30;;;57.70;;
26106;SDS011;13866;50.748;12.630;2022-08-19T05:05:18;103.80;;;61.10;;
26106;SDS011;13866;50.748;12.630;2022-08-19T05:07:44;94.70;;;55.37;;
26106;SDS011;13866;50.748;12.630;2022-08-19T05:10:10;97.70;;;56.23;;
26106;SDS011;13866;50.748;12.630;2022-08-19T05:12:36;106.40;;;58.00;;
26106;SDS011;13866;50.748;12.630;2022-08-19T05:15:03;109.47;;;61.50;;
26106;SDS011;13866;50.748;12.630;2022-08-19T05:17:30;116.43;;;59.73;;
26106;SDS011;13866;50.748;12.630;2022-08-19T05:19:57;116.07;;;59.97;;
26106;SDS011;13866;50.748;12.630;2022-08-19T05:22:43;122.27;;;68.03;;
26106;SDS011;13866;50.748;12.630;2022-08-19T05:25:12;120.17;;;65.73;;
26106;SDS011;13866;50.748;12.630;2022-08-19T05:27:43;133.43;;;69.57;;
26106;SDS011;13866;50.748;12.630;2022-08-19T05:30:09;121.07;;;68.73;;
26106;SDS011;13866;50.748;12.630;2022-08-19T05:32:36;118.27;;;66.97;;
26106;SDS011;13866;50.748;12.630;2022-08-19T05:35:02;129.50;;;63.90;;
26106;SDS011;13866;50.748;12.630;2022-08-19T05:37:28;108.03;;;61.00;;
26106;SDS011;13866;50.748;12.630;2022-08-19T05:39:54;115.53;;;64.90;;
26106;SDS011;13866;50.748;12.630;2022-08-19T05:42:19;121.50;;;64.10;;
26106;SDS011;13866;50.748;12.630;2022-08-19T05:44:47;107.00;;;62.80;;
26106;SDS011;13866;50.748;12.630;2022-08-19T05:47:14;107.90;;;60.93;;
26106;SDS011;13866;50.748;12.630;2022-08-19T05:49:40;100.33;;;57.37;;
26106;SDS011;13866;50.748;12.630;2022-08-19T05:52:08;95.00;;;57.47;;
26106;SDS011;13866;50.748;12.630;2022-08-19T05:54:36;81.57;;;53.90;;
26106;SDS011;13866;50.748;12.630;2022-08-19T05:57:05;83.80;;;53.83;;
26106;SDS011;13866;50.748;12.630;2022-08-19T05:59:30;65.53;;;46.47;;
26106;SDS011;13866;50.748;12.630;2022-08-19T06:01:56;70.57;;;45.93;;
26106;SDS011;13866;50.748;12.630;2022-08-19T06:04:22;65.33;;;44.97;;
26106;SDS011;13866;50.748;12.630;2022-08-19T06:06:49;62.33;;;42.30;;
26106;SDS011;13866;50.748;12.630;2022-08-19T06:09:16;58.93;;;43.63;;
26106;SDS011;13866;50.748;12.630;2022-08-19T06:11:44;58.10;;;42.83;;
26106;SDS011;13866;50.748;12.630;2022-08-19T06:14:13;54.80;;;42.40;;
26106;SDS011;13866;50.748;12.630;2022-08-19T06:16:42;52.43;;;40.37;;
26106;SDS011;13866;50.748;12.630;2022-08-19T06:19:08;54.57;;;44.77;;
26106;SDS011;13866;50.748;12.630;2022-08-19T06:21:37;54.50;;;43.07;;
26106;SDS011;13866;50.748;12.630;2022-08-19T06:24:06;60.63;;;46.27;;
26106;SDS011;13866;50.748;12.630;2022-08-19T06:26:35;53.33;;;43.50;;
26106;SDS011;13866;50.748;12.630;2022-08-19T06:29:02;58.80;;;44.10;;
26106;SDS011;13866;50.748;12.630;2022-08-19T06:31:29;54.20;;;43.20;;
26106;SDS011;13866;50.748;12.630;2022-08-19T06:33:58;57.07;;;43.83;;
26106;SDS011;13866;50.748;12.630;2022-08-19T06:36:25;56.63;;;42.00;;
26106;SDS011;13866;50.748;12.630;2022-08-19T06:38:58;48.93;;;42.57;;
26106;SDS011;13866;50.748;12.630;2022-08-19T06:41:29;49.00;;;41.43;;
26106;SDS011;13866;50.748;12.630;2022-08-19T06:43:55;49.13;;;41.00;;
26106;SDS011;13866;50.748;12.630;2022-08-19T06:46:21;50.47;;;41.07;;
26106;SDS011;13866;50.748;12.630;2022-08-19T06:48:47;49.17;;;42.67;;
26106;SDS011;13866;50.748;12.630;2022-08-19T06:51:14;54.30;;;41.90;;
26106;SDS011;13866;50.748;12.630;2022-08-19T06:53:43;50.77;;;43.23;;
26106;SDS011;13866;50.748;12.630;2022-08-19T06:56:12;53.00;;;39.83;;
26106;SDS011;13866;50.748;12.630;2022-08-19T06:58:39;48.10;;;40.87;;
26106;SDS011;13866;50.748;12.630;2022-08-19T07:01:05;48.77;;;40.20;;
26106;SDS011;13866;50.748;12.630;2022-08-19T07:03:32;43.70;;;38.70;;
26106;SDS011;13866;50.748;12.630;2022-08-19T07:06:06;44.87;;;40.07;;
26106;SDS011;13866;50.748;12.630;2022-08-19T07:14:26;46.60;;;40.93;;
26106;SDS011;13866;50.748;12.630;2022-08-19T07:16:53;42.63;;;38.00;;
26106;SDS011;13866;50.748;12.630;2022-08-19T07:19:21;45.63;;;39.00;;
26106;SDS011;13866;50.748;12.630;2022-08-19T07:21:48;44.37;;;37.57;;
26106;SDS011;13866;50.748;12.630;2022-08-19T07:24:17;45.27;;;40.30;;
26106;SDS011;13866;50.748;12.630;2022-08-19T07:26:43;43.13;;;37.70;;
26106;SDS011;13866;50.748;12.630;2022-08-19T07:29:10;41.03;;;36.60;;
26106;SDS011;13866;50.748;12.630;2022-08-19T07:31:36;41.13;;;34.50;;
26106;SDS011;13866;50.748;12.630;2022-08-19T07:34:05;39.13;;;35.23;;
26106;SDS011;13866;50.748;12.630;2022-08-19T07:36:34;36.33;;;32.53;;
26106;SDS011;13866;50.748;12.630;2022-08-19T07:39:05;43.57;;;36.03;;
26106;SDS011;13866;50.748;12.630;2022-08-19T07:41:39;46.23;;;36.13;;
26106;SDS011;13866;50.748;12.630;2022-08-19T07:44:05;44.33;;;37.43;;
26106;SDS011;13866;50.748;12.630;2022-08-19T07:46:37;44.50;;;39.20;;
26106;SDS011;13866;50.748;12.630;2022-08-19T07:49:04;57.60;;;45.57;;
26106;SDS011;13866;50.748;12.630;2022-08-19T07:51:31;59.03;;;44.20;;
26106;SDS011;13866;50.748;12.630;2022-08-19T07:53:57;57.00;;;43.37;;
26106;SDS011;13866;50.748;12.630;2022-08-19T07:56:23;58.70;;;45.70;;
26106;SDS011;13866;50.748;12.630;2022-08-19T07:58:50;61.50;;;44.77;;
26106;SDS011;13866;50.748;12.630;2022-08-19T08:01:19;67.43;;;49.97;;
26106;SDS011;13866;50.748;12.630;2022-08-19T08:03:51;66.23;;;46.27;;
26106;SDS011;13866;50.748;12.630;2022-08-19T08:06:36;79.23;;;47.10;;
26106;SDS011;13866;50.748;12.630;2022-08-19T08:09:22;58.20;;;44.30;;
26106;SDS011;13866;50.748;12.630;2022-08-19T08:11:55;63.13;;;45.10;;
26106;SDS011;13866;50.748;12.630;2022-08-19T08:14:26;57.97;;;47.30;;
26106;SDS011;13866;50.748;12.630;2022-08-19T08:16:58;54.73;;;44.17;;
26106;SDS011;13866;50.748;12.630;2022-08-19T08:19:25;71.67;;;52.57;;
26106;SDS011;13866;50.748;12.630;2022-08-19T08:21:55;63.77;;;48.07;;
26106;SDS011;13866;50.748;12.630;2022-08-19T08:24:23;63.27;;;48.20;;
26106;SDS011;13866;50.748;12.630;2022-08-19T08:26:49;65.27;;;50.57;;
26106;SDS011;13866;50.748;12.630;2022-08-19T08:29:14;73.80;;;48.63;;
26106;SDS011;13866;50.748;12.630;2022-08-19T08:31:40;65.10;;;50.67;;
26106;SDS011;13866;50.748;12.630;2022-08-19T08:34:08;75.97;;;55.67;;
26106;SDS011;13866;50.748;12.630;2022-08-19T08:36:42;81.93;;;58.93;;
26106;SDS011;13866;50.748;12.630;2022-08-19T08:39:10;81.83;;;58.33;;
26106;SDS011;13866;50.748;12.630;2022-08-19T08:41:44;77.23;;;57.50;;
26106;SDS011;13866;50.748;12.630;2022-08-19T08:44:22;71.00;;;54.47;;
26106;SDS011;13866;50.748;12.630;2022-08-19T08:47:04;71.53;;;50.00;;
26106;SDS011;13866;50.748;12.630;2022-08-19T08:49:51;61.67;;;51.37;;
26106;SDS011;13866;50.748;12.630;2022-08-19T08:52:41;65.67;;;50.97;;
26106;SDS011;13866;50.748;12.630;2022-08-19T08:55:12;68.90;;;51.77;;
26106;SDS011;13866;50.748;12.630;2022-08-19T08:57:44;60.37;;;52.07;;
26106;SDS011;13866;50.748;12.630;2022-08-19T09:00:30;62.20;;;51.20;;
26106;SDS011;13866;50.748;12.630;2022-08-19T09:03:01;69.23;;;49.73;;
26106;SDS011;13866;50.748;12.630;2022-08-19T09:08:27;71.03;;;53.77;;
26106;SDS011;13866;50.748;12.630;2022-08-19T09:11:00;89.47;;;55.03;;
26106;SDS011;13866;50.748;12.630;2022-08-19T09:16:42;65.77;;;50.90;;
26106;SDS011;13866;50.748;12.630;2022-08-19T09:19:08;70.43;;;52.00;;
26106;SDS011;13866;50.748;12.630;2022-08-19T09:21:33;73.30;;;54.87;;
26106;SDS011;13866;50.748;12.630;2022-08-19T09:24:03;75.10;;;54.60;;
26106;SDS011;13866;50.748;12.630;2022-08-19T09:26:30;69.50;;;53.67;;
26106;SDS011;13866;50.748;12.630;2022-08-19T09:28:57;76.77;;;54.93;;
26106;SDS011;13866;50.748;12.630;2022-08-19T09:31:25;70.10;;;50.70;;
26106;SDS011;13866;50.748;12.630;2022-08-19T09:33:52;83.00;;;57.80;;
26106;SDS011;13866;50.748;12.630;2022-08-19T09:36:22;75.67;;;55.73;;
26106;SDS011;13866;50.748;12.630;2022-08-19T09:38:49;74.20;;;56.30;;
26106;SDS011;13866;50.748;12.630;2022-08-19T09:41:18;71.07;;;54.70;;
26106;SDS011;13866;50.748;12.630;2022-08-19T09:43:45;74.53;;;55.20;;
26106;SDS011;13866;50.748;12.630;2022-08-19T09:46:12;71.00;;;54.40;;
26106;SDS011;13866;50.748;12.630;2022-08-19T09:48:39;75.37;;;54.00;;
26106;SDS011;13866;50.748;12.630;2022-08-19T09:51:06;73.90;;;54.10;;
26106;SDS011;13866;50.748;12.630;2022-08-19T09:53:33;67.50;;;52.80;;
26106;SDS011;13866;50.748;12.630;2022-08-19T09:55:59;65.87;;;50.63;;
26106;SDS011;13866;50.748;12.630;2022-08-19T09:58:25;64.97;;;49.63;;
26106;SDS011;13866;50.748;12.630;2022-08-19T10:00:53;66.40;;;50.63;;
26106;SDS011;13866;50.748;12.630;2022-08-19T10:03:19;68.67;;;52.07;;
26106;SDS011;13866;50.748;12.630;2022-08-19T10:05:45;75.13;;;54.20;;
26106;SDS011;13866;50.748;12.630;2022-08-19T10:08:18;77.80;;;54.67;;
26106;SDS011;13866;50.748;12.630;2022-08-19T10:10:46;77.90;;;52.67;;
26106;SDS011;13866;50.748;12.630;2022-08-19T10:13:13;73.40;;;51.67;;
26106;SDS011;13866;50.748;12.630;2022-08-19T10:15:40;66.00;;;50.80;;
26106;SDS011;13866;50.748;12.630;2022-08-19T10:18:06;76.00;;;54.20;;
26106;SDS011;13866;50.748;12.630;2022-08-19T10:20:32;79.47;;;57.47;;
26106;SDS011;13866;50.748;12.630;2022-08-19T10:22:57;92.40;;;57.00;;
26106;SDS011;13866;50.748;12.630;2022-08-19T10:25:26;91.33;;;62.37;;
26106;SDS011;13866;50.748;12.630;2022-08-19T10:27:51;94.20;;;63.43;;
26106;SDS011;13866;50.748;12.630;2022-08-19T10:30:18;121.27;;;74.37;;
26106;SDS011;13866;50.748;12.630;2022-08-19T10:32:44;105.83;;;72.47;;
26106;SDS011;13866;50.748;12.630;2022-08-19T10:35:11;107.43;;;72.47;;
26106;SDS011;13866;50.748;12.630;2022-08-19T10:37:37;111.43;;;72.00;;
26106;SDS011;13866;50.748;12.630;2022-08-19T10:40:04;114.70;;;71.80;;
26106;SDS011;13866;50.748;12.630;2022-08-19T10:42:32;105.87;;;71.17;;
26106;SDS011;13866;50.748;12.630;2022-08-19T10:44:58;110.30;;;72.20;;
26106;SDS011;13866;50.748;12.630;2022-08-19T10:47:23;108.67;;;70.67;;
26106;SDS011;13866;50.748;12.630;2022-08-19T10:49:49;97.67;;;61.10;;
26106;SDS011;13866;50.748;12.630;2022-08-19T10:52:33;105.97;;;62.73;;
26106;SDS011;13866;50.748;12.630;2022-08-19T10:55:03;95.97;;;62.03;;
26106;SDS011;13866;50.748;12.630;2022-08-19T10:57:48;106.20;;;62.70;;
26106;SDS011;13866;50.748;12.630;2022-08-19T11:00:14;93.43;;;62.13;;
26106;SDS011;13866;50.748;12.630;2022-08-19T11:02:40;100.43;;;60.53;;
26106;SDS011;13866;50.748;12.630;2022-08-19T11:05:06;108.33;;;64.20;;
26106;SDS011;13866;50.748;12.630;2022-08-19T11:07:35;114.83;;;69.50;;
26106;SDS011;13866;50.748;12.630;2022-08-19T11:10:02;124.23;;;74.87;;
26106;SDS011;13866;50.748;12.630;2022-08-19T11:12:28;136.50;;;79.27;;
26106;SDS011;13866;50.748;12.630;2022-08-19T11:14:54;160.03;;;87.17;;
26106;SDS011;13866;50.748;12.630;2022-08-19T11:17:19;145.90;;;85.93;;
26106;SDS011;13866;50.748;12.630;2022-08-19T11:19:48;135.67;;;77.47;;
26106;SDS011;13866;50.748;12.630;2022-08-19T11:22:14;116.03;;;73.57;;
26106;SDS011;13866;50.748;12.630;2022-08-19T11:24:40;116.70;;;72.20;;
26106;SDS011;13866;50.748;12.630;2022-08-19T11:27:06;114.13;;;70.87;;
26106;SDS011;13866;50.748;12.630;2022-08-19T11:29:39;119.27;;;69.87;;
26106;SDS011;13866;50.748;12.630;2022-08-19T11:32:06;113.10;;;66.93;;
26106;SDS011;13866;50.748;12.630;2022-08-19T11:34:34;140.07;;;76.37;;
26106;SDS011;13866;50.748;12.630;2022-08-19T11:37:00;131.73;;;74.30;;
26106;SDS011;13866;50.748;12.630;2022-08-19T11:39:28;131.60;;;75.67;;
26106;SDS011;13866;50.748;12.630;2022-08-19T11:41:57;142.40;;;82.10;;
26106;SDS011;13866;50.748;12.630;2022-08-19T11:44:23;151.37;;;79.07;;
26106;SDS011;13866;50.748;12.630;2022-08-19T11:46:48;157.43;;;82.87;;
26106;SDS011;13866;50.748;12.630;2022-08-19T11:49:15;159.43;;;84.23;;
26106;SDS011;13866;50.748;12.630;2022-08-19T11:51:43;153.20;;;79.43;;
26106;SDS011;13866;50.748;12.630;2022-08-19T11:54:09;139.03;;;72.37;;
26106;SDS011;13866;50.748;12.630;2022-08-19T11:56:37;141.53;;;75.53;;
26106;SDS011;13866;50.748;12.630;2022-08-19T11:59:03;131.67;;;71.63;;
26106;SDS011;13866;50.748;12.630;2022-08-19T12:01:28;135.17;;;67.70;;
26106;SDS011;13866;50.748;12.630;2022-08-19T12:03:55;127.17;;;69.17;;
26106;SDS011;13866;50.748;12.630;2022-08-19T12:06:23;130.23;;;64.77;;
26106;SDS011;13866;50.748;12.630;2022-08-19T12:08:54;116.80;;;65.07;;
26106;SDS011;13866;50.748;12.630;2022-08-19T12:11:24;119.00;;;61.90;;
26106;SDS011;13866;50.748;12.630;2022-08-19T12:13:49;112.80;;;60.77;;
26106;SDS011;13866;50.748;12.630;2022-08-19T12:16:19;115.60;;;62.97;;
26106;SDS011;13866;50.748;12.630;2022-08-19T12:18:48;100.27;;;59.73;;
26106;SDS011;13866;50.748;12.630;2022-08-19T12:21:15;106.93;;;59.10;;
26106;SDS011;13866;50.748;12.630;2022-08-19T12:23:48;102.60;;;57.10;;
26106;SDS011;13866;50.748;12.630;2022-08-19T12:26:14;94.37;;;54.40;;
26106;SDS011;13866;50.748;12.630;2022-08-19T12:28:40;91.70;;;52.87;;
26106;SDS011;13866;50.748;12.630;2022-08-19T12:31:07;95.80;;;55.00;;
26106;SDS011;13866;50.748;12.630;2022-08-19T12:33:33;101.97;;;54.77;;
26106;SDS011;13866;50.748;12.630;2022-08-19T12:36:05;94.50;;;54.20;;
26106;SDS011;13866;50.748;12.630;2022-08-19T12:38:33;91.00;;;56.53;;
26106;SDS011;13866;50.748;12.630;2022-08-19T12:41:02;95.40;;;54.27;;
26106;SDS011;13866;50.748;12.630;2022-08-19T12:43:31;101.10;;;59.70;;
26106;SDS011;13866;50.748;12.630;2022-08-19T12:45:57;96.70;;;58.30;;
26106;SDS011;13866;50.748;12.630;2022-08-19T12:48:22;95.57;;;56.40;;
26106;SDS011;13866;50.748;12.630;2022-08-19T12:50:48;111.20;;;58.33;;
26106;SDS011;13866;50.748;12.630;2022-08-19T12:53:14;105.83;;;57.40;;
26106;SDS011;13866;50.748;12.630;2022-08-19T12:55:40;97.07;;;54.70;;
26106;SDS011;13866;50.748;12.630;2022-08-19T12:58:07;92.90;;;56.93;;
26106;SDS011;13866;50.748;12.630;2022-08-19T13:00:33;97.03;;;55.27;;
26106;SDS011;13866;50.748;12.630;2022-08-19T13:02:59;86.70;;;53.07;;
26106;SDS011;13866;50.748;12.630;2022-08-19T13:05:26;83.87;;;54.30;;
26106;SDS011;13866;50.748;12.630;2022-08-19T13:07:54;91.77;;;55.40;;
26106;SDS011;13866;50.748;12.630;2022-08-19T13:10:21;81.63;;;53.70;;
26106;SDS011;13866;50.748;12.630;2022-08-19T13:12:50;80.47;;;53.00;;
26106;SDS011;13866;50.748;12.630;2022-08-19T13:15:17;83.13;;;53.23;;
26106;SDS011;13866;50.748;12.630;2022-08-19T13:17:47;74.63;;;48.60;;
26106;SDS011;13866;50.748;12.630;2022-08-19T13:20:14;82.80;;;51.37;;
26106;SDS011;13866;50.748;12.630;2022-08-19T13:22:41;90.60;;;55.43;;
26106;SDS011;13866;50.748;12.630;2022-08-19T13:25:08;80.77;;;52.87;;
26106;SDS011;13866;50.748;12.630;2022-08-19T13:27:33;80.70;;;49.73;;
26106;SDS011;13866;50.748;12.630;2022-08-19T13:30:00;74.80;;;49.73;;
26106;SDS011;13866;50.748;12.630;2022-08-19T13:32:46;85.17;;;50.67;;
26106;SDS011;13866;50.748;12.630;2022-08-19T13:35:30;82.07;;;50.40;;
26106;SDS011;13866;50.748;12.630;2022-08-19T13:37:56;92.67;;;55.50;;
26106;SDS011;13866;50.748;12.630;2022-08-19T13:40:22;85.40;;;51.67;;
26106;SDS011;13866;50.748;12.630;2022-08-19T13:42:51;89.10;;;52.90;;
26106;SDS011;13866;50.748;12.630;2022-08-19T13:45:19;85.17;;;52.43;;
26106;SDS011;13866;50.748;12.630;2022-08-19T13:47:47;82.30;;;52.13;;
26106;SDS011;13866;50.748;12.630;2022-08-19T13:50:15;79.27;;;52.40;;
26106;SDS011;13866;50.748;12.630;2022-08-19T13:52:43;71.50;;;51.77;;
26106;SDS011;13866;50.748;12.630;2022-08-19T13:55:09;72.87;;;50.90;;
26106;SDS011;13866;50.748;12.630;2022-08-19T13:57:35;75.17;;;50.87;;
26106;SDS011;13866;50.748;12.630;2022-08-19T14:00:06;77.20;;;53.53;;
26106;SDS011;13866;50.748;12.630;2022-08-19T14:02:39;72.73;;;52.37;;
26106;SDS011;13866;50.748;12.630;2022-08-19T14:05:06;79.17;;;55.27;;
26106;SDS011;13866;50.748;12.630;2022-08-19T14:07:34;68.13;;;51.30;;
26106;SDS011;13866;50.748;12.630;2022-08-19T14:10:00;75.77;;;52.80;;
26106;SDS011;13866;50.748;12.630;2022-08-19T14:12:27;86.67;;;53.33;;
26106;SDS011;13866;50.748;12.630;2022-08-19T14:14:53;67.00;;;49.60;;
26106;SDS011;13866;50.748;12.630;2022-08-19T14:17:18;62.13;;;49.00;;
26106;SDS011;13866;50.748;12.630;2022-08-19T14:19:44;70.83;;;48.87;;
26106;SDS011;13866;50.748;12.630;2022-08-19T14:22:09;61.37;;;45.93;;
26106;SDS011;13866;50.748;12.630;2022-08-19T14:24:36;67.43;;;47.00;;
26106;SDS011;13866;50.748;12.630;2022-08-19T14:27:04;66.93;;;47.40;;